CST,Max TemperatureF,Mean TemperatureF,Min TemperatureF,Max Dew PointF,MeanDew PointF,Min DewpointF,Max Humidity, Mean Humidity, Min Humidity, Max Sea Level PressureIn, Mean Sea Level PressureIn, Min Sea Level PressureIn, Max VisibilityMiles, Mean VisibilityMiles, Min VisibilityMiles, Max Wind SpeedMPH, Mean Wind SpeedMPH, Max Gust SpeedMPH,PrecipitationIn, CloudCover, Events, WindDirDegrees
2012-11-1,58,46,35,35,27,18,65,47,29,30.02,29.95,29.88,10,10,10,14,5,17,0.00,4,,253
2012-11-2,54,46,37,36,32,29,80,57,39,30.08,30.02,29.88,10,9,1,9,4,,0.00,0,,14
2012-11-3,50,44,38,36,33,29,90,64,53,30.18,30.09,30.04,10,9,5,12,7,18,0.00,5,Rain-Thunderstorm,57
2012-11-4,51,42,32,36,32,28,94,71,43,30.25,30.20,30.17,10,8,2,12,4,16,0.00,2,,22
2012-11-5,45,43,41,35,33,31,75,68,59,30.18,30.13,30.08,10,10,7,9,2,,0.00,8,Rain,107
2012-11-6,48,44,41,43,37,32,93,75,54,30.08,30.00,29.92,10,6,2,9,3,,0.00,8,Rain,238
2012-11-7,50,46,41,41,38,35,93,77,54,30.19,30.05,29.91,10,8,1,16,5,18,0.00,7,Rain,337
2012-11-8,54,44,33,40,35,32,96,71,46,30.26,30.19,30.11,10,7,1,10,2,,0.00,1,,165
2012-11-9,68,54,41,49,41,34,75,58,42,30.13,30.06,29.98,10,10,7,17,8,24,0.00,0,,166
2012-11-10,73,64,56,47,43,39,58,46,32,30.08,30.04,29.99,10,10,10,24,14,31,0.00,0,,180
2012-11-11,68,60,51,54,48,43,94,62,47,30.05,29.98,29.87,10,9,5,28,13,41,0.35,4,Rain-Thunderstorm,186
2012-11-12,51,42,33,49,27,20,91,63,38,30.44,30.29,30.03,10,10,4,17,12,31,0.16,2,Rain,271
2012-11-13,45,38,31,29,23,16,87,57,32,30.54,30.49,30.44,10,10,10,6,1,,0.00,0,,321
2012-11-14,46,38,31,29,25,20,89,63,38,30.51,30.44,30.37,10,10,7,5,2,,0.00,0,,78
2012-11-15,50,40,29,33,29,24,92,72,37,30.41,30.37,30.34,10,8,3,4,0,,0.00,0,,270
2012-11-16,54,42,31,33,29,22,94,66,29,30.47,30.44,30.39,10,8,2,6,1,,0.00,0,,58
2012-11-17,57,44,31,33,30,26,91,62,30,30.53,30.46,30.42,10,8,2,7,1,,0.00,0,,85
2012-11-18,61,46,32,34,32,27,92,62,27,30.43,30.38,30.33,10,9,4,6,1,,0.00,0,,163
2012-11-19,60,48,36,38,34,32,89,58,35,30.33,30.25,30.14,10,10,7,8,2,,0.00,3,,171
2012-11-20,61,54,46,46,43,35,83,63,51,30.18,30.12,30.07,10,10,7,7,2,,0.00,5,,237
2012-11-21,60,50,41,52,45,40,97,84,54,30.29,30.22,30.18,7,3,0,5,1,,0.00,2,Fog,212
2012-11-22,64,54,43,52,44,40,93,69,40,30.18,30.08,29.99,10,7,2,21,8,25,0.14,2,Rain-Thunderstorm,186
2012-11-23,56,44,31,52,27,17,84,56,35,30.32,30.22,30.04,10,10,10,23,13,33,0.14,2,,302
2012-11-24,35,30,26,24,19,17,71,62,55,30.34,30.24,30.07,10,10,10,10,6,,0.00,0,,267
2012-11-25,52,42,32,31,26,21,78,55,35,30.07,29.99,29.93,10,10,10,15,8,18,0.00,0,,216
2012-11-26,46,40,32,30,26,21,74,60,46,30.35,30.19,30.06,10,10,10,17,7,26,0.00,5,,23
2012-11-27,39,33,27,26,22,19,80,67,43,30.44,30.37,30.33,10,9,7,12,6,,0.00,0,,336
2012-11-28,48,38,27,27,24,21,89,63,34,30.45,30.39,30.34,10,8,5,6,1,,0.00,0,,199
2012-11-29,55,44,33,30,26,23,74,51,32,30.34,30.24,30.14,10,10,7,18,7,21,0.00,0,,165
2012-11-30,61,52,42,42,33,24,73,50,37,30.16,30.13,30.09,10,10,10,15,10,22,0.00,0,,190